Silleda, Spain
Current Conditions -  °F | °C
As of 5:00 AM on Thursday 27 Nov 2014 (Local Time) from LEST Reporting Station
Clear Clear  
Wind Chill: 38°   Ceiling: Unl
Heat Index: 41°   Visibility: 5mi
Dew Point: 39°   Wind: 5mph
Humidity: 93%   Direction: 120°ESE
Pressure: 29.62"   Gusts: NA
Location:  42.7°N, 8.25°W
Report Text: LEST 270400Z 12004KT 8000 NSC 05/04 Q1003 TEMPO 3000 BR
Loading
Personal Weather Stations






























Interactive Weather Map New forecast layout! Learn more

10-Day Weather Forecast

Advertisements
Track Severe Weather on mobile